sensor_id;sensor_type;location;lat;lon;timestamp;pressure;altitude;pressure_sealevel;temperature;humidity
74045;BME280;62389;51.412;5.436;2023-11-22T00:02:24;102603.81;;;4.77;100.00
74045;BME280;62389;51.412;5.436;2023-11-22T00:04:53;102608.97;;;4.74;100.00
74045;BME280;62389;51.412;5.436;2023-11-22T00:07:18;102600.31;;;4.72;100.00
74045;BME280;62389;51.412;5.436;2023-11-22T00:09:44;102599.44;;;4.68;100.00
74045;BME280;62389;51.412;5.436;2023-11-22T00:12:11;102593.34;;;4.64;100.00
74045;BME280;62389;51.412;5.436;2023-11-22T00:14:36;102590.75;;;4.63;100.00
74045;BME280;62389;51.412;5.436;2023-11-22T00:17:02;102586.44;;;4.63;100.00
74045;BME280;62389;51.412;5.436;2023-11-22T00:19:27;102591.63;;;4.63;100.00
74045;BME280;62389;51.412;5.436;2023-11-22T00:21:53;102588.16;;;4.64;100.00
74045;BME280;62389;51.412;5.436;2023-11-22T00:24:18;102582.13;;;4.65;100.00
74045;BME280;62389;51.412;5.436;2023-11-22T00:26:43;102584.72;;;4.65;100.00
74045;BME280;62389;51.412;5.436;2023-11-22T00:29:09;102595.94;;;4.66;100.00
74045;BME280;62389;51.412;5.436;2023-11-22T00:31:34;102584.72;;;4.65;100.00
74045;BME280;62389;51.412;5.436;2023-11-22T00:34:00;102600.25;;;4.65;100.00
74045;BME280;62389;51.412;5.436;2023-11-22T00:36:25;102605.44;;;4.65;100.00
74045;BME280;62389;51.412;5.436;2023-11-22T00:38:51;102608.06;;;4.67;100.00
74045;BME280;62389;51.412;5.436;2023-11-22T00:41:16;102605.44;;;4.65;100.00
74045;BME280;62389;51.412;5.436;2023-11-22T00:43:42;102614.94;;;4.65;100.00
74045;BME280;62389;51.412;5.436;2023-11-22T00:46:07;102621.00;;;4.65;100.00
74045;BME280;62389;51.412;5.436;2023-11-22T00:48:33;102619.25;;;4.64;100.00
74045;BME280;62389;51.412;5.436;2023-11-22T00:50:58;102619.22;;;4.61;100.00
74045;BME280;62389;51.412;5.436;2023-11-22T00:53:24;102617.50;;;4.60;100.00
74045;BME280;62389;51.412;5.436;2023-11-22T00:55:49;102615.72;;;4.56;100.00
74045;BME280;62389;51.412;5.436;2023-11-22T00:58:15;102630.41;;;4.54;100.00
74045;BME280;62389;51.412;5.436;2023-11-22T01:00:40;102626.91;;;4.51;100.00
74045;BME280;62389;51.412;5.436;2023-11-22T01:03:06;102629.47;;;4.49;100.00
74045;BME280;62389;51.412;5.436;2023-11-22T01:05:34;102628.56;;;4.46;100.00
74045;BME280;62389;51.412;5.436;2023-11-22T01:07:59;102643.25;;;4.45;100.00
74045;BME280;62389;51.412;5.436;2023-11-22T01:10:25;102649.28;;;4.43;100.00
74045;BME280;62389;51.412;5.436;2023-11-22T01:12:50;102649.25;;;4.41;100.00
74045;BME280;62389;51.412;5.436;2023-11-22T01:15:15;102650.09;;;4.40;100.00
74045;BME280;62389;51.412;5.436;2023-11-22T01:17:41;102656.16;;;4.39;100.00
74045;BME280;62389;51.412;5.436;2023-11-22T01:20:07;102659.56;;;4.36;100.00
74045;BME280;62389;51.412;5.436;2023-11-22T01:22:35;102657.81;;;4.34;100.00
74045;BME280;62389;51.412;5.436;2023-11-22T01:25:00;102662.09;;;4.29;100.00
74045;BME280;62389;51.412;5.436;2023-11-22T01:27:26;102661.16;;;4.24;100.00
74045;BME280;62389;51.412;5.436;2023-11-22T01:29:52;102660.25;;;4.22;100.00
74045;BME280;62389;51.412;5.436;2023-11-22T01:32:19;102665.44;;;4.20;100.00
74045;BME280;62389;51.412;5.436;2023-11-22T01:34:46;102661.91;;;4.16;100.00
74045;BME280;62389;51.412;5.436;2023-11-22T01:37:11;102670.59;;;4.17;100.00
74045;BME280;62389;51.412;5.436;2023-11-22T01:39:39;102679.16;;;4.14;100.00
74045;BME280;62389;51.412;5.436;2023-11-22T01:42:05;102692.97;;;4.13;100.00
74045;BME280;62389;51.412;5.436;2023-11-22T01:44:31;102699.00;;;4.12;100.00
74045;BME280;62389;51.412;5.436;2023-11-22T01:46:57;102701.59;;;4.12;100.00
74045;BME280;62389;51.412;5.436;2023-11-22T01:49:23;102712.78;;;4.10;100.00
74045;BME280;62389;51.412;5.436;2023-11-22T01:51:49;102716.16;;;4.06;100.00
74045;BME280;62389;51.412;5.436;2023-11-22T01:54:15;102728.22;;;4.02;100.00
74045;BME280;62389;51.412;5.436;2023-11-22T01:56:44;102720.47;;;4.02;100.00
74045;BME280;62389;51.412;5.436;2023-11-22T01:59:10;102726.47;;;4.01;100.00
74045;BME280;62389;51.412;5.436;2023-11-22T02:01:36;102723.00;;;4.01;100.00
74045;BME280;62389;51.412;5.436;2023-11-22T02:04:02;102725.59;;;3.99;100.00
74045;BME280;62389;51.412;5.436;2023-11-22T02:06:27;102724.72;;;3.99;100.00
74045;BME280;62389;51.412;5.436;2023-11-22T02:08:54;102722.13;;;3.97;100.00
74045;BME280;62389;51.412;5.436;2023-11-22T02:11:20;102714.34;;;3.97;100.00
74045;BME280;62389;51.412;5.436;2023-11-22T02:13:48;102704.81;;;3.96;100.00
74045;BME280;62389;51.412;5.436;2023-11-22T02:16:14;102711.72;;;3.94;100.00
74045;BME280;62389;51.412;5.436;2023-11-22T02:18:40;102700.47;;;3.92;100.00
74045;BME280;62389;51.412;5.436;2023-11-22T02:21:07;102696.09;;;3.88;100.00
74045;BME280;62389;51.412;5.436;2023-11-22T02:23:32;102686.53;;;3.82;100.00
74045;BME280;62389;51.412;5.436;2023-11-22T02:25:58;102682.16;;;3.80;100.00
74045;BME280;62389;51.412;5.436;2023-11-22T02:28:24;102695.09;;;3.78;100.00
74045;BME280;62389;51.412;5.436;2023-11-22T02:30:49;102701.94;;;3.76;100.00
74045;BME280;62389;51.412;5.436;2023-11-22T02:33:14;102705.41;;;3.75;100.00
74045;BME280;62389;51.412;5.436;2023-11-22T02:35:40;102711.41;;;3.73;100.00
74045;BME280;62389;51.412;5.436;2023-11-22T02:38:06;102712.28;;;3.72;100.00
74045;BME280;62389;51.412;5.436;2023-11-22T02:40:31;102723.44;;;3.71;100.00
74045;BME280;62389;51.412;5.436;2023-11-22T02:42:56;102725.16;;;3.69;100.00
74045;BME280;62389;51.412;5.436;2023-11-22T02:45:27;102725.09;;;3.66;100.00
74045;BME280;62389;51.412;5.436;2023-11-22T02:47:53;102712.97;;;3.61;100.00
74045;BME280;62389;51.412;5.436;2023-11-22T02:50:19;102724.13;;;3.59;100.00
74045;BME280;62389;51.412;5.436;2023-11-22T02:52:44;102718.94;;;3.57;100.00
74045;BME280;62389;51.412;5.436;2023-11-22T02:55:10;102722.34;;;3.56;100.00
74045;BME280;62389;51.412;5.436;2023-11-22T02:57:36;102709.44;;;3.56;100.00
74045;BME280;62389;51.412;5.436;2023-11-22T03:00:06;102711.13;;;3.54;100.00
74045;BME280;62389;51.412;5.436;2023-11-22T03:02:32;102700.72;;;3.51;100.00
74045;BME280;62389;51.412;5.436;2023-11-22T03:04:58;102698.13;;;3.50;100.00
74045;BME280;62389;51.412;5.436;2023-11-22T03:07:25;102696.38;;;3.47;100.00
74045;BME280;62389;51.412;5.436;2023-11-22T03:09:51;102703.28;;;3.47;100.00
74045;BME280;62389;51.412;5.436;2023-11-22T03:12:18;102706.66;;;3.44;100.00
74045;BME280;62389;51.412;5.436;2023-11-22T03:14:45;102708.38;;;3.44;100.00
74045;BME280;62389;51.412;5.436;2023-11-22T03:17:11;102699.75;;;3.42;100.00
74045;BME280;62389;51.412;5.436;2023-11-22T03:19:37;102703.16;;;3.41;100.00
74045;BME280;62389;51.412;5.436;2023-11-22T03:22:02;102714.28;;;3.35;100.00
74045;BME280;62389;51.412;5.436;2023-11-22T03:24:29;102707.31;;;3.31;100.00
74045;BME280;62389;51.412;5.436;2023-11-22T03:26:55;102710.66;;;3.25;100.00
74045;BME280;62389;51.412;5.436;2023-11-22T03:29:24;102701.16;;;3.24;100.00
74045;BME280;62389;51.412;5.436;2023-11-22T03:31:50;102711.44;;;3.20;100.00
74045;BME280;62389;51.412;5.436;2023-11-22T03:34:15;102727.81;;;3.19;100.00
74045;BME280;62389;51.412;5.436;2023-11-22T03:36:40;102729.47;;;3.15;100.00
74045;BME280;62389;51.412;5.436;2023-11-22T03:39:06;102732.81;;;3.09;100.00
74045;BME280;62389;51.412;5.436;2023-11-22T03:41:31;102731.00;;;3.05;100.00
74045;BME280;62389;51.412;5.436;2023-11-22T03:43:57;102742.97;;;3.00;100.00
74045;BME280;62389;51.412;5.436;2023-11-22T03:46:22;102746.41;;;2.98;100.00
74045;BME280;62389;51.412;5.436;2023-11-22T03:48:47;102747.19;;;2.94;100.00
74045;BME280;62389;51.412;5.436;2023-11-22T03:51:12;102756.59;;;2.90;100.00
74045;BME280;62389;51.412;5.436;2023-11-22T03:53:38;102758.28;;;2.90;100.00
74045;BME280;62389;51.412;5.436;2023-11-22T03:56:03;102758.28;;;2.88;100.00
74045;BME280;62389;51.412;5.436;2023-11-22T03:58:29;102778.09;;;2.89;100.00
74045;BME280;62389;51.412;5.436;2023-11-22T04:00:54;102790.16;;;2.89;100.00
74045;BME280;62389;51.412;5.436;2023-11-22T04:03:20;102787.56;;;2.87;100.00
74045;BME280;62389;51.412;5.436;2023-11-22T04:05:45;102792.66;;;2.84;100.00
74045;BME280;62389;51.412;5.436;2023-11-22T04:08:11;102799.47;;;2.80;100.00
74045;BME280;62389;51.412;5.436;2023-11-22T04:10:36;102804.53;;;2.76;100.00
74045;BME280;62389;51.412;5.436;2023-11-22T04:13:01;102809.56;;;2.68;100.00
74045;BME280;62389;51.412;5.436;2023-11-22T04:15:27;102814.72;;;2.67;100.00
74045;BME280;62389;51.412;5.436;2023-11-22T04:17:52;102814.72;;;2.67;100.00
74045;BME280;62389;51.412;5.436;2023-11-22T04:20:19;102808.69;;;2.66;100.00
74045;BME280;62389;51.412;5.436;2023-11-22T04:22:45;102814.66;;;2.64;100.00
74045;BME280;62389;51.412;5.436;2023-11-22T04:25:11;102815.47;;;2.61;100.00
74045;BME280;62389;51.412;5.436;2023-11-22T04:27:40;102816.25;;;2.58;100.00
74045;BME280;62389;51.412;5.436;2023-11-22T04:30:07;102817.09;;;2.57;100.00
74045;BME280;62389;51.412;5.436;2023-11-22T04:32:42;102819.63;;;2.54;100.00
74045;BME280;62389;51.412;5.436;2023-11-22T04:35:08;102818.66;;;2.51;100.00
74045;BME280;62389;51.412;5.436;2023-11-22T04:37:35;102822.19;;;2.53;100.00
74045;BME280;62389;51.412;5.436;2023-11-22T04:40:00;102834.25;;;2.54;100.00
74045;BME280;62389;51.412;5.436;2023-11-22T04:42:28;102825.66;;;2.55;100.00
74045;BME280;62389;51.412;5.436;2023-11-22T04:44:56;102835.06;;;2.51;100.00
74045;BME280;62389;51.412;5.436;2023-11-22T04:47:21;102827.25;;;2.50;100.00
74045;BME280;62389;51.412;5.436;2023-11-22T04:49:47;102823.78;;;2.48;100.00
74045;BME280;62389;51.412;5.436;2023-11-22T04:52:13;102824.53;;;2.42;100.00
74045;BME280;62389;51.412;5.436;2023-11-22T04:54:38;102825.31;;;2.40;100.00
74045;BME280;62389;51.412;5.436;2023-11-22T04:57:04;102833.88;;;2.37;100.00
74045;BME280;62389;51.412;5.436;2023-11-22T04:59:29;102830.28;;;2.30;100.00
74045;BME280;62389;51.412;5.436;2023-11-22T05:01:55;102834.47;;;2.25;100.00
74045;BME280;62389;51.412;5.436;2023-11-22T05:04:21;102841.34;;;2.25;100.00
74045;BME280;62389;51.412;5.436;2023-11-22T05:06:46;102843.91;;;2.23;100.00
74045;BME280;62389;51.412;5.436;2023-11-22T05:09:11;102847.28;;;2.21;100.00
74045;BME280;62389;51.412;5.436;2023-11-22T05:11:38;102854.00;;;2.14;100.00
74045;BME280;62389;51.412;5.436;2023-11-22T05:14:04;102847.00;;;2.08;100.00
74045;BME280;62389;51.412;5.436;2023-11-22T05:16:29;102846.88;;;2.04;100.00
74045;BME280;62389;51.412;5.436;2023-11-22T05:18:55;102861.41;;;2.00;100.00
74045;BME280;62389;51.412;5.436;2023-11-22T05:21:20;102852.91;;;2.04;100.00
74045;BME280;62389;51.412;5.436;2023-11-22T05:23:45;102844.50;;;2.12;100.00
74045;BME280;62389;51.412;5.436;2023-11-22T05:26:11;102849.84;;;2.21;100.00
74045;BME280;62389;51.412;5.436;2023-11-22T05:28:36;102846.66;;;2.31;100.00
74045;BME280;62389;51.412;5.436;2023-11-22T05:31:01;102851.22;;;2.43;100.00
74045;BME280;62389;51.412;5.436;2023-11-22T05:33:27;102856.66;;;2.55;100.00
74045;BME280;62389;51.412;5.436;2023-11-22T05:35:52;102852.56;;;2.65;100.00
74045;BME280;62389;51.412;5.436;2023-11-22T05:38:19;102842.34;;;2.71;100.00
74045;BME280;62389;51.412;5.436;2023-11-22T05:40:44;102836.47;;;2.78;100.00
74045;BME280;62389;51.412;5.436;2023-11-22T05:43:10;102834.84;;;2.83;100.00
74045;BME280;62389;51.412;5.436;2023-11-22T05:45:35;102832.28;;;2.83;100.00
74045;BME280;62389;51.412;5.436;2023-11-22T05:48:01;102839.19;;;2.84;100.00
74045;BME280;62389;51.412;5.436;2023-11-22T05:50:26;102843.56;;;2.87;100.00
74045;BME280;62389;51.412;5.436;2023-11-22T05:52:52;102847.91;;;2.89;100.00
74045;BME280;62389;51.412;5.436;2023-11-22T05:55:18;102859.13;;;2.91;100.00
74045;BME280;62389;51.412;5.436;2023-11-22T05:57:43;102860.03;;;2.93;100.00
74045;BME280;62389;51.412;5.436;2023-11-22T06:00:10;102869.47;;;2.91;100.00
74045;BME280;62389;51.412;5.436;2023-11-22T06:02:35;102884.06;;;2.89;100.00
74045;BME280;62389;51.412;5.436;2023-11-22T06:05:02;102889.91;;;2.80;100.00
74045;BME280;62389;51.412;5.436;2023-11-22T06:07:28;102894.00;;;2.71;100.00
74045;BME280;62389;51.412;5.436;2023-11-22T06:09:54;102893.75;;;2.58;100.00
74045;BME280;62389;51.412;5.436;2023-11-22T06:12:19;102880.72;;;2.52;100.00
74045;BME280;62389;51.412;5.436;2023-11-22T06:14:46;102872.16;;;2.55;100.00
74045;BME280;62389;51.412;5.436;2023-11-22T06:17:12;102879.06;;;2.56;100.00
74045;BME280;62389;51.412;5.436;2023-11-22T06:19:37;102884.19;;;2.54;100.00
74045;BME280;62389;51.412;5.436;2023-11-22T06:22:03;102885.06;;;2.55;100.00
74045;BME280;62389;51.412;5.436;2023-11-22T06:24:28;102886.00;;;2.57;100.00
74045;BME280;62389;51.412;5.436;2023-11-22T06:26:53;102886.75;;;2.53;100.00
74045;BME280;62389;51.412;5.436;2023-11-22T06:29:19;102899.47;;;2.45;100.00
74045;BME280;62389;51.412;5.436;2023-11-22T06:31:45;102902.78;;;2.38;100.00
74045;BME280;62389;51.412;5.436;2023-11-22T06:34:11;102906.09;;;2.32;100.00
74045;BME280;62389;51.412;5.436;2023-11-22T06:36:36;102896.53;;;2.30;100.00
74045;BME280;62389;51.412;5.436;2023-11-22T06:39:01;102900.84;;;2.29;100.00
74045;BME280;62389;51.412;5.436;2023-11-22T06:41:27;102896.53;;;2.30;100.00
74045;BME280;62389;51.412;5.436;2023-11-22T06:43:54;102899.19;;;2.31;100.00
74045;BME280;62389;51.412;5.436;2023-11-22T06:46:19;102900.16;;;2.37;100.00
74045;BME280;62389;51.412;5.436;2023-11-22T06:48:44;102912.34;;;2.42;100.00
74045;BME280;62389;51.412;5.436;2023-11-22T06:51:10;102920.16;;;2.45;100.00
74045;BME280;62389;51.412;5.436;2023-11-22T06:53:35;102926.09;;;2.41;100.00
74045;BME280;62389;51.412;5.436;2023-11-22T06:56:01;102938.91;;;2.37;100.00
74045;BME280;62389;51.412;5.436;2023-11-22T06:58:27;102937.31;;;2.42;100.00
74045;BME280;62389;51.412;5.436;2023-11-22T07:00:52;102917.63;;;2.47;100.00
74045;BME280;62389;51.412;5.436;2023-11-22T07:03:18;102906.50;;;2.51;100.00
74045;BME280;62389;51.412;5.436;2023-11-22T07:05:44;102897.13;;;2.54;100.00
74045;BME280;62389;51.412;5.436;2023-11-22T07:08:09;102891.91;;;2.51;100.00
74045;BME280;62389;51.412;5.436;2023-11-22T07:10:36;102891.06;;;2.52;100.00
74045;BME280;62389;51.412;5.436;2023-11-22T07:13:02;102885.88;;;2.52;100.00
74045;BME280;62389;51.412;5.436;2023-11-22T07:15:27;102878.13;;;2.52;100.00
74045;BME280;62389;51.412;5.436;2023-11-22T07:17:53;102878.16;;;2.54;100.00
74045;BME280;62389;51.412;5.436;2023-11-22T07:20:19;102883.44;;;2.58;100.00
74045;BME280;62389;51.412;5.436;2023-11-22T07:22:45;102877.47;;;2.61;100.00
74045;BME280;62389;51.412;5.436;2023-11-22T07:25:11;102886.19;;;2.66;100.00
74045;BME280;62389;51.412;5.436;2023-11-22T07:27:46;102889.66;;;2.67;100.00
74045;BME280;62389;51.412;5.436;2023-11-22T07:30:13;102905.97;;;2.66;100.00
74045;BME280;62389;51.412;5.436;2023-11-22T07:32:39;102899.91;;;2.64;100.00
74045;BME280;62389;51.412;5.436;2023-11-22T07:35:06;102898.22;;;2.66;100.00
74045;BME280;62389;51.412;5.436;2023-11-22T07:37:34;102900.03;;;2.70;100.00
74045;BME280;62389;51.412;5.436;2023-11-22T07:40:01;102897.44;;;2.70;100.00
74045;BME280;62389;51.412;5.436;2023-11-22T07:42:28;102909.47;;;2.68;100.00
74045;BME280;62389;51.412;5.436;2023-11-22T07:44:53;102912.09;;;2.71;100.00
74045;BME280;62389;51.412;5.436;2023-11-22T07:47:22;102915.63;;;2.74;100.00
74045;BME280;62389;51.412;5.436;2023-11-22T07:49:48;102912.28;;;2.78;100.00
74045;BME280;62389;51.412;5.436;2023-11-22T07:52:14;102915.81;;;2.82;100.00
74045;BME280;62389;51.412;5.436;2023-11-22T07:54:39;102910.69;;;2.83;100.00
74045;BME280;62389;51.412;5.436;2023-11-22T07:57:06;102910.69;;;2.83;100.00
74045;BME280;62389;51.412;5.436;2023-11-22T07:59:32;102910.69;;;2.85;100.00
74045;BME280;62389;51.412;5.436;2023-11-22T08:01:58;102925.44;;;2.89;100.00
74045;BME280;62389;51.412;5.436;2023-11-22T08:04:23;102924.53;;;2.87;100.00
74045;BME280;62389;51.412;5.436;2023-11-22T08:06:50;102931.34;;;2.83;100.00
74045;BME280;62389;51.412;5.436;2023-11-22T08:09:16;102942.56;;;2.84;100.00
74045;BME280;62389;51.412;5.436;2023-11-22T08:11:42;102945.25;;;2.89;100.00
74045;BME280;62389;51.412;5.436;2023-11-22T08:14:08;102949.66;;;2.94;100.00
74045;BME280;62389;51.412;5.436;2023-11-22T08:16:34;102955.78;;;2.98;100.00
74045;BME280;62389;51.412;5.436;2023-11-22T08:19:03;102959.25;;;2.98;100.00
74045;BME280;62389;51.412;5.436;2023-11-22T08:21:30;102968.59;;;2.93;100.00
74045;BME280;62389;51.412;5.436;2023-11-22T08:23:55;102967.69;;;2.91;100.00
74045;BME280;62389;51.412;5.436;2023-11-22T08:26:21;102971.97;;;2.91;100.00
74045;BME280;62389;51.412;5.436;2023-11-22T08:28:46;102980.69;;;2.94;100.00
74045;BME280;62389;51.412;5.436;2023-11-22T08:31:11;102977.41;;;3.01;100.00
74045;BME280;62389;51.412;5.436;2023-11-22T08:33:37;102966.34;;;3.07;100.00
74045;BME280;62389;51.412;5.436;2023-11-22T08:36:05;102975.84;;;3.09;100.00
74045;BME280;62389;51.412;5.436;2023-11-22T08:38:31;102970.75;;;3.13;100.00
74045;BME280;62389;51.412;5.436;2023-11-22T08:40:58;102968.22;;;3.16;100.00
74045;BME280;62389;51.412;5.436;2023-11-22T08:43:25;102965.63;;;3.16;100.00
74045;BME280;62389;51.412;5.436;2023-11-22T08:45:51;102960.53;;;3.19;100.00
74045;BME280;62389;51.412;5.436;2023-11-22T08:48:16;102960.63;;;3.22;100.00
74045;BME280;62389;51.412;5.436;2023-11-22T08:50:42;102971.00;;;3.25;100.00
74045;BME280;62389;51.412;5.436;2023-11-22T08:53:09;102971.94;;;3.27;100.00
74045;BME280;62389;51.412;5.436;2023-11-22T08:55:34;102977.13;;;3.30;100.00
74045;BME280;62389;51.412;5.436;2023-11-22T08:57:59;102973.78;;;3.34;100.00
74045;BME280;62389;51.412;5.436;2023-11-22T09:00:25;102980.69;;;3.35;100.00
74045;BME280;62389;51.412;5.436;2023-11-22T09:02:53;102986.81;;;3.38;100.00
74045;BME280;62389;51.412;5.436;2023-11-22T09:05:20;102986.06;;;3.44;100.00
74045;BME280;62389;51.412;5.436;2023-11-22T09:07:46;102987.00;;;3.48;100.00
74045;BME280;62389;51.412;5.436;2023-11-22T09:10:12;102981.88;;;3.51;100.00
74045;BME280;62389;51.412;5.436;2023-11-22T09:12:40;102985.47;;;3.57;100.00
74045;BME280;62389;51.412;5.436;2023-11-22T09:15:10;102987.31;;;3.63;100.00
74045;BME280;62389;51.412;5.436;2023-11-22T09:17:39;102991.69;;;3.67;100.00
74045;BME280;62389;51.412;5.436;2023-11-22T09:20:17;102989.13;;;3.69;100.00
74045;BME280;62389;51.412;5.436;2023-11-22T09:22:43;102987.50;;;3.74;100.00
74045;BME280;62389;51.412;5.436;2023-11-22T09:25:25;102988.47;;;3.80;100.00
74045;BME280;62389;51.412;5.436;2023-11-22T09:27:53;102998.91;;;3.83;100.00
74045;BME280;62389;51.412;5.436;2023-11-22T09:30:24;103001.41;;;3.80;100.00
74045;BME280;62389;51.412;5.436;2023-11-22T09:33:09;103003.22;;;3.83;100.00
74045;BME280;62389;51.412;5.436;2023-11-22T09:35:35;102990.34;;;3.87;100.00
74045;BME280;62389;51.412;5.436;2023-11-22T09:38:03;102992.19;;;3.93;100.00
74045;BME280;62389;51.412;5.436;2023-11-22T09:40:29;102998.34;;;4.00;100.00
74045;BME280;62389;51.412;5.436;2023-11-22T09:42:57;103005.22;;;3.99;100.00
74045;BME280;62389;51.412;5.436;2023-11-22T09:45:23;102995.72;;;3.98;100.00
74045;BME280;62389;51.412;5.436;2023-11-22T09:47:50;103001.75;;;3.97;100.00
74045;BME280;62389;51.412;5.436;2023-11-22T09:53:26;103010.22;;;3.90;100.00
74045;BME280;62389;51.412;5.436;2023-11-22T09:55:56;103010.34;;;3.96;100.00
74045;BME280;62389;51.412;5.436;2023-11-22T09:58:22;103008.69;;;4.00;100.00
74045;BME280;62389;51.412;5.436;2023-11-22T10:00:50;103007.88;;;4.02;100.00
74045;BME280;62389;51.412;5.436;2023-11-22T10:03:17;103003.56;;;4.03;100.00
74045;BME280;62389;51.412;5.436;2023-11-22T10:05:44;102989.75;;;4.02;100.00
74045;BME280;62389;51.412;5.436;2023-11-22T10:08:09;102984.63;;;4.05;100.00
74045;BME280;62389;51.412;5.436;2023-11-22T10:10:36;102983.91;;;4.12;100.00
74045;BME280;62389;51.412;5.436;2023-11-22T10:13:01;102990.03;;;4.19;100.00
74045;BME280;62389;51.412;5.436;2023-11-22T10:15:28;102983.22;;;4.23;100.00
74045;BME280;62389;51.412;5.436;2023-11-22T10:17:58;102983.25;;;4.26;100.00
74045;BME280;62389;51.412;5.436;2023-11-22T10:20:38;102993.66;;;4.29;100.00
74045;BME280;62389;51.412;5.436;2023-11-22T10:23:11;102991.97;;;4.31;100.00
74045;BME280;62389;51.412;5.436;2023-11-22T10:25:49;102991.19;;;4.36;100.00
74045;BME280;62389;51.412;5.436;2023-11-22T10:28:17;103000.81;;;4.42;100.00
74045;BME280;62389;51.412;5.436;2023-11-22T10:30:46;102999.97;;;4.46;100.00
74045;BME280;62389;51.412;5.436;2023-11-22T10:33:11;102991.31;;;4.44;100.00
74045;BME280;62389;51.412;5.436;2023-11-22T10:35:47;102995.66;;;4.45;100.00
74045;BME280;62389;51.412;5.436;2023-11-22T10:38:20;102987.03;;;4.46;100.00
74045;BME280;62389;51.412;5.436;2023-11-22T10:40:46;102979.31;;;4.51;100.00
74045;BME280;62389;51.412;5.436;2023-11-22T10:43:13;102986.28;;;4.53;100.00
74045;BME280;62389;51.412;5.436;2023-11-22T10:45:40;102975.19;;;4.62;100.00
74045;BME280;62389;51.412;5.436;2023-11-22T10:48:10;102978.78;;;4.72;100.00
74045;BME280;62389;51.412;5.436;2023-11-22T10:50:36;102975.47;;;4.82;100.00
74045;BME280;62389;51.412;5.436;2023-11-22T10:53:06;102973.00;;;4.91;100.00
74045;BME280;62389;51.412;5.436;2023-11-22T10:55:32;102974.00;;;4.99;100.00
74045;BME280;62389;51.412;5.436;2023-11-22T10:58:08;102961.09;;;5.05;100.00
74045;BME280;62389;51.412;5.436;2023-11-22T11:00:35;102944.69;;;5.06;100.00
74045;BME280;62389;51.412;5.436;2023-11-22T11:03:08;102947.38;;;5.14;100.00
74045;BME280;62389;51.412;5.436;2023-11-22T11:05:38;102948.38;;;5.27;100.00
74045;BME280;62389;51.412;5.436;2023-11-22T11:08:12;102952.78;;;5.31;100.00
74045;BME280;62389;51.412;5.436;2023-11-22T11:10:41;102944.97;;;5.28;100.00
74045;BME280;62389;51.412;5.436;2023-11-22T11:13:08;102931.19;;;5.35;100.00
74045;BME280;62389;51.412;5.436;2023-11-22T11:15:41;102922.59;;;5.39;100.00
74045;BME280;62389;51.412;5.436;2023-11-22T11:18:10;102917.38;;;5.36;100.00
74045;BME280;62389;51.412;5.436;2023-11-22T11:20:50;102920.81;;;5.33;100.00
74045;BME280;62389;51.412;5.436;2023-11-22T11:23:27;102926.94;;;5.38;100.00
74045;BME280;62389;51.412;5.436;2023-11-22T11:25:57;102923.47;;;5.39;100.00
74045;BME280;62389;51.412;5.436;2023-11-22T11:28:23;102925.19;;;5.40;100.00
74045;BME280;62389;51.412;5.436;2023-11-22T11:30:53;102922.63;;;5.42;100.00
74045;BME280;62389;51.412;5.436;2023-11-22T11:33:26;102925.25;;;5.43;100.00
74045;BME280;62389;51.412;5.436;2023-11-22T11:35:52;102927.00;;;5.46;100.00
74045;BME280;62389;51.412;5.436;2023-11-22T11:38:21;102922.81;;;5.57;100.00
74045;BME280;62389;51.412;5.436;2023-11-22T11:40:48;102915.06;;;5.63;100.00
74045;BME280;62389;51.412;5.436;2023-11-22T11:43:13;102911.63;;;5.64;100.00
74045;BME280;62389;51.412;5.436;2023-11-22T11:45:41;102903.88;;;5.67;100.00
74045;BME280;62389;51.412;5.436;2023-11-22T11:48:15;102903.97;;;5.80;100.00
74045;BME280;62389;51.412;5.436;2023-11-22T11:50:42;102888.47;;;5.89;100.00
74045;BME280;62389;51.412;5.436;2023-11-22T11:53:09;102879.03;;;5.95;100.00
74045;BME280;62389;51.412;5.436;2023-11-22T11:55:36;102869.44;;;5.90;100.00
74045;BME280;62389;51.412;5.436;2023-11-22T11:58:05;102860.75;;;5.86;100.00
74045;BME280;62389;51.412;5.436;2023-11-22T12:00:34;102859.13;;;5.96;100.00
74045;BME280;62389;51.412;5.436;2023-11-22T12:03:00;102855.66;;;5.97;100.00
74045;BME280;62389;51.412;5.436;2023-11-22T12:05:25;102838.31;;;5.91;100.00
74045;BME280;62389;51.412;5.436;2023-11-22T12:07:52;102837.38;;;5.85;100.00
74045;BME280;62389;51.412;5.436;2023-11-22T12:10:18;102839.88;;;5.72;100.00
74045;BME280;62389;51.412;5.436;2023-11-22T12:12:44;102836.34;;;5.66;100.00
74045;BME280;62389;51.412;5.436;2023-11-22T12:15:11;102844.06;;;5.61;100.00
74045;BME280;62389;51.412;5.436;2023-11-22T12:17:36;102850.03;;;5.51;100.00
74045;BME280;62389;51.412;5.436;2023-11-22T12:20:13;102834.38;;;5.39;100.00
74045;BME280;62389;51.412;5.436;2023-11-22T12:22:40;102830.00;;;5.33;100.00
74045;BME280;62389;51.412;5.436;2023-11-22T12:25:07;102825.63;;;5.31;100.00
74045;BME280;62389;51.412;5.436;2023-11-22T12:27:32;102825.63;;;5.28;100.00
74045;BME280;62389;51.412;5.436;2023-11-22T12:29:58;102822.09;;;5.23;100.00
74045;BME280;62389;51.412;5.436;2023-11-22T12:32:26;102823.78;;;5.20;100.00
74045;BME280;62389;51.412;5.436;2023-11-22T12:34:51;102829.84;;;5.21;100.00
74045;BME280;62389;51.412;5.436;2023-11-22T12:37:21;102835.03;;;5.21;100.00
74045;BME280;62389;51.412;5.436;2023-11-22T12:39:48;102836.81;;;5.25;100.00
74045;BME280;62389;51.412;5.436;2023-11-22T12:42:13;102842.97;;;5.35;100.00
74045;BME280;62389;51.412;5.436;2023-11-22T12:44:51;102856.13;;;5.55;100.00
74045;BME280;62389;51.412;5.436;2023-11-22T12:47:32;102851.94;;;5.69;100.00
74045;BME280;62389;51.412;5.436;2023-11-22T12:50:02;102844.13;;;5.64;100.00
74045;BME280;62389;51.412;5.436;2023-11-22T12:52:29;102849.25;;;5.60;100.00